Time;durP1;ratioP1;P1;durP2;ratioP2;P2;SDS_P1;SDS_P2;PMS_P1;PMS_P2;Temp;Humidity;BMP_temperature;BMP_pressure;BME280_temperature;BME280_humidity;BME280_pressure;Samples;Min_cycle;Max_cycle;Signal;HPM_P1;HPM_P2
2023/09/02 00:00:19;;;;;;;20.70;14.00;;;;;;;20.46;82.49;99436.70;82081;1295;3011804;-71
2023/09/02 00:02:47;;;;;;;26.60;12.70;;;;;;;20.37;82.30;99446.15;80795;1295;3026603;-70
2023/09/02 00:05:13;;;;;;;21.50;13.60;;;;;;;20.25;82.58;99442.96;82105;1295;3012513;-70
2023/09/02 00:07:40;;;;;;;23.00;11.20;;;;;;;19.99;83.71;99445.94;82053;1295;3011373;-69
2023/09/02 00:10:08;;;;;;;14.10;8.60;;;;;;;19.76;85.20;99444.43;80827;1294;3025782;-70
2023/09/02 00:12:35;;;;;;;13.80;9.60;;;;;;;20.31;83.69;99447.83;82116;1295;3013036;-71
2023/09/02 00:15:02;;;;;;;15.80;10.70;;;;;;;20.60;81.25;99450.05;82072;1295;3011219;-70
2023/09/02 00:17:31;;;;;;;14.90;9.60;;;;;;;20.44;81.66;99447.23;80802;1295;3049028;-70
2023/09/02 00:19:58;;;;;;;14.00;10.50;;;;;;;20.10;83.12;99456.92;82054;1295;3012574;-70
2023/09/02 00:22:24;;;;;;;15.80;10.70;;;;;;;19.87;84.36;99456.94;82080;1299;3011124;-69
2023/09/02 00:24:52;;;;;;;14.90;8.80;;;;;;;19.65;85.46;99456.38;80797;1295;3051359;-71
2023/09/02 00:27:19;;;;;;;13.40;8.80;;;;;;;19.92;85.00;99450.41;82087;1295;3019048;-70
2023/09/02 00:29:45;;;;;;;11.80;9.90;;;;;;;20.11;83.50;99443.80;82009;1295;3011215;-69
2023/09/02 00:32:13;;;;;;;18.60;11.20;;;;;;;19.91;84.23;99445.31;80811;1295;3025780;-69
2023/09/02 00:34:40;;;;;;;16.10;11.30;;;;;;;19.75;85.13;99441.02;82054;1295;3012880;-69
2023/09/02 00:37:07;;;;;;;14.40;11.50;;;;;;;19.54;86.05;99441.14;82047;1294;3011284;-69
2023/09/02 00:39:35;;;;;;;14.20;9.00;;;;;;;19.44;87.14;99442.67;80830;1295;3026661;-69
2023/09/02 00:42:01;;;;;;;13.90;9.20;;;;;;;19.94;85.28;99448.71;82080;1295;3012719;-69
2023/09/02 00:44:28;;;;;;;19.10;10.60;;;;;;;20.08;83.75;99448.79;81921;1294;3011679;-68
2023/09/02 00:46:58;;;;;;;18.10;10.90;;;;;;;20.04;83.75;99447.38;80739;1295;3026443;-69
2023/09/02 00:49:24;;;;;;;16.00;11.10;;;;;;;19.79;84.74;99448.86;81949;1295;3012674;-68
2023/09/02 00:51:51;;;;;;;14.10;11.00;;;;;;;19.63;85.12;99446.06;82080;1299;3011150;-69
2023/09/02 00:54:20;;;;;;;12.90;9.50;;;;;;;19.52;85.89;99449.86;80797;1295;3051097;-70
2023/09/02 00:56:46;;;;;;;15.90;10.40;;;;;;;19.83;84.95;99447.36;82095;1295;3013027;-69
2023/09/02 00:59:13;;;;;;;15.90;11.30;;;;;;;20.14;83.04;99443.76;82063;1295;3011424;-69
2023/09/02 01:01:42;;;;;;;20.40;11.80;;;;;;;19.98;83.42;99450.70;80751;1295;3026360;-69
2023/09/02 01:04:09;;;;;;;17.20;12.80;;;;;;;19.78;83.74;99454.73;82004;1295;3011216;-69
2023/09/02 01:06:36;;;;;;;16.80;13.30;;;;;;;19.55;84.85;99453.95;82072;1300;3011097;-69
2023/09/02 01:09:04;;;;;;;13.20;10.10;;;;;;;19.45;85.42;99460.77;80741;1295;3052093;-69
2023/09/02 01:11:33;;;;;;;14.50;10.30;;;;;;;19.76;84.68;99462.55;79800;1295;6081094;-71
2023/09/02 01:14:02;;;;;;;17.70;11.90;;;;;;;20.00;82.98;99460.98;82016;1295;3011425;-69
2023/09/02 01:16:31;;;;;;;19.90;11.90;;;;;;;19.98;82.61;99463.40;80801;1295;3049581;-69
2023/09/02 01:18:58;;;;;;;19.90;12.20;;;;;;;19.71;83.52;99464.38;82021;1297;3013066;-69
2023/09/02 01:21:25;;;;;;;16.60;13.60;;;;;;;19.48;84.41;99459.14;82054;1295;3011264;-69
2023/09/02 01:24:34;;;;;;;13.70;10.20;;;;;;;19.29;85.94;99463.60;80821;1295;3050851;-69
2023/09/02 01:27:13;;;;;;;15.20;11.10;;;;;;;19.68;84.56;99467.60;80542;1295;3056351;-68
2023/09/02 01:29:45;;;;;;;16.30;12.10;;;;;;;19.89;83.18;99468.61;80794;1295;3048983;-69
2023/09/02 01:32:12;;;;;;;17.10;13.60;;;;;;;19.76;83.32;99462.05;81996;1295;3011150;-70
2023/09/02 01:34:41;;;;;;;18.20;14.00;;;;;;;19.56;84.14;99464.35;80754;1295;3025979;-69
2023/09/02 01:37:08;;;;;;;18.30;13.70;;;;;;;19.24;85.97;99470.50;82030;1300;3011408;-70
2023/09/02 01:39:37;;;;;;;14.00;10.50;;;;;;;19.02;87.40;99472.92;81933;1297;3011820;-69
2023/09/02 01:42:07;;;;;;;15.40;11.50;;;;;;;19.33;86.90;99468.18;80637;1295;3051736;-69
2023/09/02 01:44:34;;;;;;;20.00;11.80;;;;;;;19.41;85.89;99477.21;81937;1295;3011233;-69
2023/09/02 01:47:03;;;;;;;19.50;12.40;;;;;;;19.26;86.43;99474.72;81434;1294;3011390;-70
2023/09/02 01:49:30;;;;;;;18.00;12.50;;;;;;;19.12;86.77;99473.26;81947;1295;3012509;-69
2023/09/02 01:51:57;;;;;;;18.10;12.60;;;;;;;18.85;88.35;99473.99;82062;1294;3011217;-68
2023/09/02 01:54:25;;;;;;;15.00;10.40;;;;;;;18.70;89.94;99476.48;80685;1297;3053137;-69
2023/09/02 01:56:52;;;;;;;14.50;11.30;;;;;;;19.11;88.69;99470.47;82017;1295;3017995;-70
2023/09/02 01:59:18;;;;;;;17.60;11.90;;;;;;;19.29;86.91;99472.33;81915;1295;3011340;-70
2023/09/02 02:01:46;;;;;;;16.30;12.60;;;;;;;19.26;87.09;99476.34;80747;1295;3026271;-70
2023/09/02 02:04:40;;;;;;;19.10;12.60;;;;;;;19.10;87.47;99476.66;82092;1295;3012741;-68
2023/09/02 02:07:10;;;;;;;21.40;12.50;;;;;;;18.89;88.51;99477.19;80747;1298;3053682;-69
2023/09/02 02:09:46;;;;;;;17.70;10.30;;;;;;;18.74;89.56;99485.19;82085;1295;3011285;-68
2023/09/02 02:12:14;;;;;;;15.40;11.60;;;;;;;19.09;88.79;99482.38;80785;1295;3068348;-69
2023/09/02 02:14:40;;;;;;;16.20;12.40;;;;;;;19.23;87.06;99488.14;81990;1295;3018610;-70
2023/09/02 02:17:08;;;;;;;20.00;12.10;;;;;;;19.14;87.31;99487.25;82025;1295;3011147;-69
2023/09/02 02:19:36;;;;;;;20.00;12.50;;;;;;;18.89;88.41;99488.88;80802;1298;3052611;-68
2023/09/02 02:22:03;;;;;;;21.00;13.70;;;;;;;18.76;88.94;99490.80;82088;1298;3018868;-70
2023/09/02 02:24:30;;;;;;;13.50;10.10;;;;;;;18.63;89.93;99488.89;82064;1300;3011377;-69
2023/09/02 02:26:58;;;;;;;15.40;10.50;;;;;;;19.11;88.68;99492.17;80742;1295;3026695;-71
2023/09/02 02:29:25;;;;;;;18.60;11.30;;;;;;;19.34;86.53;99492.42;82051;1295;3018100;-69
2023/09/02 02:31:52;;;;;;;15.60;10.90;;;;;;;19.27;86.27;99491.37;82059;1295;3011255;-69
2023/09/02 02:34:20;;;;;;;16.60;11.50;;;;;;;19.02;87.33;99496.00;80812;1295;3027750;-69
2023/09/02 02:36:46;;;;;;;14.80;10.90;;;;;;;18.82;88.31;99494.86;82079;1294;3012463;-69
2023/09/02 02:39:13;;;;;;;19.80;9.50;;;;;;;18.71;89.32;99497.85;82081;1297;3011200;-69
2023/09/02 02:41:41;;;;;;;12.60;9.30;;;;;;;19.08;88.21;99500.94;80825;1295;3025904;-69
2023/09/02 02:44:08;;;;;;;19.90;10.40;;;;;;;19.33;86.24;99497.66;82107;1295;3013052;-69
2023/09/02 02:46:34;;;;;;;14.40;11.00;;;;;;;19.32;85.49;99501.15;82079;1295;3011293;-68
2023/09/02 02:49:02;;;;;;;18.70;11.70;;;;;;;18.99;87.19;99505.17;80804;1295;3026604;-69
2023/09/02 02:51:29;;;;;;;15.40;10.50;;;;;;;18.79;88.65;99502.77;82088;1298;3013317;-69
2023/09/02 02:53:56;;;;;;;13.90;9.60;;;;;;;18.59;89.87;99502.51;82084;1295;3011140;-70
2023/09/02 02:56:24;;;;;;;16.30;10.30;;;;;;;18.92;88.72;99497.66;80800;1295;3025934;-69
2023/09/02 02:58:51;;;;;;;15.10;10.00;;;;;;;19.14;87.30;99497.02;82036;1295;3012727;-69
2023/09/02 03:01:18;;;;;;;14.70;11.00;;;;;;;19.13;86.92;99496.21;82086;1294;3011363;-68
2023/09/02 03:03:46;;;;;;;16.60;11.20;;;;;;;18.90;87.97;99506.55;80791;1295;3026364;-71
2023/09/02 03:06:20;;;;;;;15.40;10.70;;;;;;;18.79;88.68;99507.98;82012;1298;3011269;-70
2023/09/02 03:08:48;;;;;;;;;;;;;;;18.58;90.08;99505.77;80824;1294;3052016;-69
2023/09/02 03:11:15;;;;;;;15.90;9.10;;;;;;;18.96;89.52;99507.75;82018;1295;3012582;-69
2023/09/02 03:13:41;;;;;;;19.90;10.60;;;;;;;19.21;87.45;99506.26;82029;1295;3011419;-69
2023/09/02 03:16:28;;;;;;;16.00;10.00;;;;;;;19.16;87.82;99502.00;80731;1295;3048881;-69
2023/09/02 03:18:55;;;;;;;13.80;9.90;;;;;;;18.98;88.61;99503.48;82068;1295;3012779;-69
2023/09/02 03:21:22;;;;;;;15.20;10.80;;;;;;;18.82;89.74;99506.73;82041;1295;3011330;-67
2023/09/02 03:23:51;;;;;;;14.10;9.30;;;;;;;18.71;90.59;99512.02;80736;1300;3052068;-68
2023/09/02 03:26:18;;;;;;;12.70;9.30;;;;;;;19.13;89.28;99515.77;82092;1295;3019326;-69
2023/09/02 03:28:47;;;;;;;15.10;9.00;;;;;;;19.29;87.84;99519.70;82047;1295;3011218;-69
2023/09/02 03:31:15;;;;;;;16.50;10.20;;;;;;;19.30;87.42;99516.29;80763;1295;3047895;-71
2023/09/02 03:33:43;;;;;;;19.50;11.80;;;;;;;19.21;87.68;99513.31;82086;1295;3013008;-69
2023/09/02 03:36:17;;;;;;;15.80;10.70;;;;;;;18.97;88.86;99514.80;81973;1296;3011485;-70
2023/09/02 03:38:45;;;;;;;12.50;8.30;;;;;;;18.81;90.27;99519.81;80798;1301;3052801;-71
2023/09/02 03:41:12;;;;;;;13.70;9.90;;;;;;;19.20;88.70;99511.92;81992;1295;3012767;-70
2023/09/02 03:43:39;;;;;;;11.50;9.20;;;;;;;19.37;87.10;99515.38;81968;1295;3011408;-70
2023/09/02 03:46:07;;;;;;;13.30;10.40;;;;;;;19.36;86.76;99516.78;80740;1295;3026956;-69
2023/09/02 03:48:34;;;;;;;14.60;10.70;;;;;;;19.20;86.68;99520.64;82002;1296;3013233;-69
2023/09/02 03:51:11;;;;;;;18.60;11.40;;;;;;;19.08;87.36;99519.02;82026;1295;3011330;-69
2023/09/02 03:53:39;;;;;;;12.30;8.50;;;;;;;18.89;88.17;99525.98;80759;1299;3052734;-70
2023/09/02 03:56:06;;;;;;;11.00;9.40;;;;;;;19.12;87.33;99525.98;82067;1295;3018754;-70
2023/09/02 03:58:33;;;;;;;14.30;9.60;;;;;;;19.32;86.04;99529.90;82063;1295;3011269;-69
2023/09/02 04:01:01;;;;;;;16.70;10.00;;;;;;;19.28;85.77;99540.77;80818;1295;3048679;-69
2023/09/02 04:03:28;;;;;;;13.90;9.90;;;;;;;19.11;86.42;99538.65;82007;1295;3012738;-69
2023/09/02 04:05:55;;;;;;;11.70;9.40;;;;;;;18.89;87.62;99545.33;82067;1295;3011365;-68
2023/09/02 04:08:25;;;;;;;9.40;7.30;;;;;;;18.84;88.55;99545.82;80832;1295;3053530;-68
2023/09/02 04:10:53;;;;;;;15.70;7.60;;;;;;;19.26;86.76;99545.57;81986;1300;3012434;-69
2023/09/02 04:13:26;;;;;;;14.80;8.60;;;;;;;19.52;84.48;99548.09;81556;1295;3011410;-68
2023/09/02 04:15:58;;;;;;;15.50;9.10;;;;;;;19.41;84.44;99546.67;81477;1295;3011095;-68
2023/09/02 04:18:26;;;;;;;9.70;7.70;;;;;;;19.29;84.62;99547.14;82018;1296;3012680;-68
2023/09/02 04:20:54;;;;;;;14.20;9.30;;;;;;;19.15;84.76;99548.02;82030;1296;3011180;-68
2023/09/02 04:23:22;;;;;;;8.90;7.00;;;;;;;18.98;86.21;99552.84;80744;1295;3048518;-69
2023/09/02 04:25:51;;;;;;;11.00;7.20;;;;;;;19.39;84.34;99550.75;82025;1301;3013001;-69
2023/09/02 04:28:21;;;;;;;9.90;7.40;;;;;;;19.61;83.29;99559.51;81524;1295;3011301;-70
2023/09/02 04:30:48;;;;;;;11.30;7.80;;;;;;;19.64;82.42;99553.24;82087;1295;3012583;-67
2023/09/02 04:33:16;;;;;;;12.00;9.00;;;;;;;19.57;82.67;99558.98;81995;1296;3011524;-68
2023/09/02 04:35:45;;;;;;;11.40;8.30;;;;;;;19.40;83.68;99551.54;80722;1295;3047969;-69
2023/09/02 04:38:12;;;;;;;14.40;9.20;;;;;;;19.29;83.96;99562.38;82048;1296;3012771;-69
2023/09/02 04:40:40;;;;;;;8.30;7.00;;;;;;;19.17;85.21;99562.82;82010;1295;3011254;-68
2023/09/02 04:43:10;;;;;;;9.70;7.50;;;;;;;19.55;84.25;99559.35;80787;1299;3053218;-68
2023/09/02 04:45:37;;;;;;;10.20;8.00;;;;;;;19.84;82.58;99563.60;82064;1298;3011341;-70
2023/09/02 04:48:09;;;;;;;9.70;7.90;;;;;;;19.77;82.65;99560.81;80720;1295;3056787;-65
2023/09/02 04:50:37;;;;;;;13.00;8.40;;;;;;;19.50;83.66;99559.81;82037;1295;3011440;-72
2023/09/02 04:53:04;;;;;;;16.60;8.90;;;;;;;19.32;84.76;99560.69;81946;1297;3011252;-66
2023/09/02 04:55:38;;;;;;;13.40;7.30;;;;;;;19.19;85.49;99560.31;80669;1298;3053320;-69
2023/09/02 04:58:06;;;;;;;10.10;8.00;;;;;;;19.63;84.23;99559.31;81932;1298;3011396;-67
2023/09/02 05:00:34;;;;;;;14.10;8.40;;;;;;;19.78;83.31;99567.05;80651;1298;3026657;-67
2023/09/02 05:03:01;;;;;;;12.70;9.40;;;;;;;19.68;83.49;99565.14;81946;1297;3013180;-68
2023/09/02 05:05:29;;;;;;;14.90;9.90;;;;;;;19.67;83.66;99561.59;81965;1298;3011346;-70
2023/09/02 05:08:00;;;;;;;12.70;9.70;;;;;;;19.46;84.87;99561.98;80725;1295;3053912;-70
2023/09/02 05:10:27;;;;;;;10.10;8.30;;;;;;;19.33;85.72;99568.69;81923;1296;3011181;-69
2023/09/02 05:12:56;;;;;;;12.60;8.90;;;;;;;19.72;84.48;99566.16;81416;1301;3011136;-69
2023/09/02 05:15:22;;;;;;;12.20;9.40;;;;;;;19.99;82.55;99567.73;82009;1301;3018001;-67
2023/09/02 05:17:50;;;;;;;16.10;12.10;;;;;;;19.83;82.87;99568.36;81931;1296;3011427;-70
2023/09/02 05:20:18;;;;;;;15.10;10.00;;;;;;;19.49;84.21;99573.72;80826;1298;3026151;-67
2023/09/02 05:22:44;;;;;;;11.80;10.30;;;;;;;19.30;85.57;99574.48;82088;1295;3012895;-69
2023/09/02 05:25:11;;;;;;;10.80;8.40;;;;;;;19.22;86.18;99574.91;82152;1292;3011403;-68
2023/09/02 05:27:41;;;;;;;12.80;9.80;;;;;;;19.63;84.95;99576.35;80919;1292;3025699;-65
2023/09/02 05:30:08;;;;;;;13.80;10.30;;;;;;;19.94;83.26;99575.84;82153;1295;3012549;-66
2023/09/02 05:32:35;;;;;;;12.40;10.40;;;;;;;20.06;82.33;99583.39;82207;1295;3011212;-68
2023/09/02 05:35:03;;;;;;;12.50;11.20;;;;;;;19.87;83.27;99586.80;80924;1292;3055675;-66
2023/09/02 05:37:30;;;;;;;14.50;9.90;;;;;;;19.84;83.42;99591.87;82215;1295;3011136;-67
2023/09/02 05:39:57;;;;;;;11.70;8.20;;;;;;;19.54;84.63;99591.40;82122;1292;3010999;-67
2023/09/02 05:42:24;;;;;;;13.00;9.20;;;;;;;19.93;83.86;99590.45;80917;1298;3052115;-67
2023/09/02 05:44:51;;;;;;;15.60;9.70;;;;;;;20.26;81.98;99591.41;82232;1293;3010903;-67
2023/09/02 05:47:18;;;;;;;11.60;9.70;;;;;;;20.04;82.50;99593.48;82207;1294;3011121;-67
2023/09/02 05:49:45;;;;;;;12.40;10.60;;;;;;;20.12;82.65;99589.95;80927;1292;3025419;-67
2023/09/02 05:52:12;;;;;;;11.80;9.80;;;;;;;20.01;82.66;99592.69;82207;1292;3012885;-67
2023/09/02 05:54:39;;;;;;;10.60;7.90;;;;;;;19.76;83.71;99590.42;82171;1292;3011376;-67
2023/09/02 05:57:06;;;;;;;12.80;8.00;;;;;;;19.80;84.43;99594.77;80968;1295;3025880;-67
2023/09/02 05:59:33;;;;;;;14.30;9.00;;;;;;;20.18;82.74;99596.02;82212;1292;3012692;-67
2023/09/02 06:02:00;;;;;;;11.60;8.60;;;;;;;20.47;81.58;99590.86;82156;1295;3011450;-67
2023/09/02 06:04:27;;;;;;;13.90;9.30;;;;;;;20.35;81.13;99599.57;80940;1292;3027040;-67
2023/09/02 06:06:54;;;;;;;14.00;9.50;;;;;;;20.27;80.78;99599.63;82235;1292;3012679;-67
2023/09/02 06:09:21;;;;;;;9.20;8.30;;;;;;;20.13;81.73;99596.20;82157;1295;3011628;-67
2023/09/02 06:11:49;;;;;;;9.00;7.00;;;;;;;20.21;81.43;99597.41;80929;1294;3027562;-67
2023/09/02 06:14:15;;;;;;;8.30;7.20;;;;;;;20.72;79.00;99604.20;82249;1292;3013728;-67
2023/09/02 06:16:41;;;;;;;10.30;7.80;;;;;;;20.82;77.91;99600.20;82175;1292;3011044;-67
2023/09/02 06:19:09;;;;;;;9.30;7.80;;;;;;;20.87;77.56;99601.65;80925;1292;3025609;-67
2023/09/02 06:21:36;;;;;;;9.90;8.00;;;;;;;20.79;77.80;99598.61;82233;1292;3012516;-67
2023/09/02 06:24:05;;;;;;;13.10;8.90;;;;;;;20.66;77.77;99601.27;82190;1293;3011217;-67
2023/09/02 06:26:33;;;;;;;12.30;8.30;;;;;;;20.54;78.50;99604.91;80941;1293;3052420;-66
2023/09/02 06:28:59;;;;;;;11.00;8.70;;;;;;;20.45;79.03;99608.56;82211;1293;3012677;-66
2023/09/02 06:31:26;;;;;;;11.80;6.70;;;;;;;20.35;79.13;99606.17;82178;1292;3011167;-66
2023/09/02 06:33:54;;;;;;;11.50;7.10;;;;;;;20.83;77.60;99609.59;80928;1292;3026274;-66
2023/09/02 06:36:21;;;;;;;8.10;7.20;;;;;;;21.11;75.94;99602.41;82213;1292;3012862;-66
2023/09/02 06:38:47;;;;;;;12.50;7.60;;;;;;;21.32;74.93;99606.12;82154;1293;3011406;-67
2023/09/02 06:41:15;;;;;;;11.50;7.90;;;;;;;21.41;74.48;99604.15;80951;1293;3025754;-66
2023/09/02 06:43:42;;;;;;;11.80;7.10;;;;;;;21.30;74.02;99604.96;82244;1292;3018628;-66
2023/09/02 06:46:19;;;;;;;10.50;7.30;;;;;;;21.16;73.75;99610.98;82205;1292;3011354;-66
2023/09/02 06:48:47;;;;;;;13.20;7.30;;;;;;;21.12;74.30;99610.48;80931;1292;3055956;-66
2023/09/02 06:51:14;;;;;;;10.00;7.70;;;;;;;21.08;74.89;99612.56;82201;1292;3013131;-66
2023/09/02 06:53:41;;;;;;;9.70;7.00;;;;;;;20.86;74.51;99619.40;82149;1294;3011312;-66
2023/09/02 06:56:09;;;;;;;8.40;7.10;;;;;;;20.77;74.34;99616.95;80974;1294;3026441;-67
2023/09/02 06:58:38;;;;;;;13.00;6.50;;;;;;;20.77;73.92;99611.02;82178;1298;3013192;-66
2023/09/02 07:01:06;;;;;;;8.20;5.00;;;;;;;20.96;73.74;99609.95;81673;1292;3011846;-66
2023/09/02 07:03:33;;;;;;;9.80;5.70;;;;;;;21.66;71.58;99610.30;82224;1292;3012297;-66
2023/09/02 07:06:06;;;;;;;7.50;6.30;;;;;;;21.89;70.12;99616.86;82159;1292;3011321;-66
2023/09/02 07:08:34;;;;;;;10.40;6.20;;;;;;;21.96;69.90;99611.96;80966;1292;3052261;-66
2023/09/02 07:11:01;;;;;;;10.00;6.30;;;;;;;22.17;69.20;99608.70;82177;1298;3013000;-67
2023/09/02 07:13:27;;;;;;;10.30;6.70;;;;;;;22.20;69.14;99617.80;82160;1292;3011313;-66
2023/09/02 07:16:02;;;;;;;9.50;6.60;;;;;;;22.09;69.17;99621.30;80949;1292;3026448;-68
2023/09/02 07:18:32;;;;;;;6.90;6.20;;;;;;;21.78;70.21;99629.04;81665;1292;3011311;-66
2023/09/02 07:21:03;;;;;;;7.70;6.70;;;;;;;21.70;70.30;99624.55;82207;1292;3012370;-65
2023/09/02 07:23:32;;;;;;;8.60;6.70;;;;;;;21.55;70.00;99631.94;80893;1294;3049050;-66
2023/09/02 07:26:00;;;;;;;8.20;6.30;;;;;;;21.59;70.11;99624.21;82138;1294;3012666;-64
2023/09/02 07:28:27;;;;;;;8.80;6.50;;;;;;;21.56;69.36;99637.56;82142;1293;3011204;-65
2023/09/02 07:30:58;;;;;;;9.70;6.20;;;;;;;21.46;69.13;99633.19;80931;1295;3051296;-64
2023/09/02 07:33:25;;;;;;;7.50;5.70;;;;;;;21.58;68.20;99622.42;82210;1294;3011809;-64
2023/09/02 07:35:54;;;;;;;6.90;5.80;;;;;;;21.61;67.83;99624.19;81693;1293;3011444;-64
2023/09/02 07:38:20;;;;;;;8.70;6.10;;;;;;;21.69;68.02;99619.51;82227;1292;3012620;-64
2023/09/02 07:40:47;;;;;;;8.90;5.80;;;;;;;21.81;67.58;99623.57;82173;1295;3011601;-65
2023/09/02 07:43:14;;;;;;;8.10;5.40;;;;;;;21.71;67.33;99627.78;80954;1292;3026392;-65
2023/09/02 07:45:43;;;;;;;6.90;5.30;;;;;;;21.80;66.57;99633.64;82246;1294;3012834;-64
2023/09/02 07:48:10;;;;;;;8.30;5.60;;;;;;;21.69;66.36;99632.84;82169;1298;3011528;-65
2023/09/02 07:50:37;;;;;;;9.10;5.20;;;;;;;21.76;65.93;99639.89;80968;1292;3050885;-65
2023/09/02 07:53:04;;;;;;;7.20;5.40;;;;;;;21.85;65.02;99633.29;82234;1293;3013364;-65
2023/09/02 07:55:31;;;;;;;9.90;6.20;;;;;;;21.99;65.17;99630.44;82158;1298;3011419;-64
2023/09/02 07:58:00;;;;;;;8.20;5.70;;;;;;;22.11;66.07;99620.73;80933;1293;3025989;-64
2023/09/02 08:00:28;;;;;;;6.10;5.20;;;;;;;22.36;65.10;99629.86;82188;1292;3012633;-65
2023/09/02 08:02:57;;;;;;;9.80;6.00;;;;;;;22.32;65.21;99636.40;81685;1295;3011388;-65
2023/09/02 08:05:24;;;;;;;8.20;6.30;;;;;;;22.08;66.20;99633.23;82164;1293;3012791;-65
2023/09/02 08:07:51;;;;;;;6.50;5.60;;;;;;;22.01;66.30;99635.89;82130;1294;3011387;-65
2023/09/02 08:10:19;;;;;;;7.90;5.50;;;;;;;22.05;65.52;99636.40;80883;1295;3047828;-65
2023/09/02 08:12:46;;;;;;;8.70;5.00;;;;;;;22.28;64.82;99640.70;82145;1294;3012637;-65
2023/09/02 08:15:12;;;;;;;7.70;5.60;;;;;;;22.23;64.28;99640.17;82126;1293;3011086;-64
2023/09/02 08:17:41;;;;;;;7.20;4.80;;;;;;;22.29;63.85;99641.14;80917;1294;3026460;-68
2023/09/02 08:20:08;;;;;;;6.20;4.80;;;;;;;22.36;62.80;99644.17;82174;1294;3018747;-66
2023/09/02 08:22:39;;;;;;;8.30;5.00;;;;;;;22.50;62.40;99645.77;82211;1292;3011617;-66
2023/09/02 08:25:07;;;;;;;6.20;4.60;;;;;;;22.54;61.69;99643.39;80949;1295;3049330;-66
2023/09/02 08:27:34;;;;;;;6.30;5.10;;;;;;;22.52;60.90;99646.34;82231;1293;3012609;-67
2023/09/02 08:30:03;;;;;;;7.00;5.40;;;;;;;22.50;61.08;99646.04;82219;1293;3011444;-68
2023/09/02 08:32:32;;;;;;;6.60;5.10;;;;;;;22.54;60.64;99642.39;80904;1294;3052107;-67
2023/09/02 08:34:58;;;;;;;7.20;6.00;;;;;;;22.59;60.66;99647.21;82179;1294;3013764;-65
2023/09/02 08:37:25;;;;;;;8.20;4.40;;;;;;;22.60;60.84;99641.89;82102;1294;3011319;-67
2023/09/02 08:39:53;;;;;;;8.50;5.50;;;;;;;22.70;60.73;99644.20;80901;1292;3025771;-67
2023/09/02 08:42:19;;;;;;;5.70;4.20;;;;;;;22.89;60.69;99644.16;82190;1293;3012670;-66
2023/09/02 08:44:47;;;;;;;6.00;4.50;;;;;;;22.92;59.73;99652.80;82121;1298;3011420;-66
2023/09/02 08:47:19;;;;;;;4.90;4.40;;;;;;;22.91;59.25;99653.57;80896;1292;3051511;-67
2023/09/02 08:49:46;;;;;;;;;;;;;;;22.90;58.57;99651.39;82176;1294;3011690;-70
2023/09/02 08:52:14;;;;;;;4.80;4.10;;;;;;;22.92;59.20;99643.13;80818;1294;3050979;-71
2023/09/02 08:54:41;;;;;;;10.50;4.80;;;;;;;23.23;58.92;99641.52;82113;1294;3018365;-69
2023/09/02 08:57:11;;;;;;;6.50;4.30;;;;;;;23.40;57.42;99652.81;82165;1292;3011265;-68
2023/09/02 08:59:38;;;;;;;9.40;4.40;;;;;;;23.20;57.07;99648.09;80899;1292;3050163;-67
2023/09/02 09:02:05;;;;;;;4.70;4.10;;;;;;;23.04;57.17;99659.48;82179;1294;3012462;-67
2023/09/02 09:04:36;;;;;;;5.00;3.90;;;;;;;23.04;56.52;99650.17;82090;1294;3011652;-68
2023/09/02 09:07:05;;;;;;;6.00;3.70;;;;;;;23.24;56.09;99644.64;80928;1293;3051434;-66
2023/09/02 09:09:32;;;;;;;6.30;3.80;;;;;;;23.52;55.56;99651.86;82171;1292;3011557;-66
2023/09/02 09:12:01;;;;;;;5.50;4.10;;;;;;;23.65;55.88;99645.55;82098;1293;3011087;-68
2023/09/02 09:14:32;;;;;;;5.10;3.80;;;;;;;23.62;55.77;99642.71;80834;1293;3049820;-66
2023/09/02 09:16:59;;;;;;;8.40;4.60;;;;;;;23.80;55.38;99649.14;82092;1294;3011204;-67
2023/09/02 09:19:27;;;;;;;5.50;4.10;;;;;;;23.74;54.82;99657.95;81683;1293;3011008;-68
2023/09/02 09:21:55;;;;;;;5.30;4.00;;;;;;;23.63;54.54;99655.52;82190;1294;3017984;-66
2023/09/02 09:24:21;;;;;;;6.00;3.80;;;;;;;23.76;53.30;99658.48;82175;1294;3011188;-66
2023/09/02 09:26:49;;;;;;;5.40;3.80;;;;;;;23.70;53.42;99653.27;80869;1294;3025802;-67
2023/09/02 09:29:17;;;;;;;7.00;3.80;;;;;;;23.74;52.48;99659.02;82148;1294;3018108;-68
2023/09/02 09:31:44;;;;;;;7.00;4.30;;;;;;;24.00;52.57;99655.61;82136;1295;3011128;-67
2023/09/02 09:34:13;;;;;;;8.10;4.30;;;;;;;24.24;52.54;99658.93;80945;1292;3051808;-65
2023/09/02 09:36:39;;;;;;;6.20;4.60;;;;;;;24.23;53.22;99670.14;82187;1293;3012695;-66
2023/09/02 09:39:07;;;;;;;5.60;3.90;;;;;;;24.15;53.77;99664.63;82158;1292;3011417;-67
2023/09/02 09:41:35;;;;;;;5.90;3.40;;;;;;;23.91;52.50;99670.40;80953;1292;3049287;-67
2023/09/02 09:44:14;;;;;;;5.10;3.50;;;;;;;23.73;52.25;99679.58;82192;1292;3018118;-67
2023/09/02 09:46:42;;;;;;;6.70;3.80;;;;;;;23.75;52.92;99675.18;80933;1293;3052459;-67
2023/09/02 09:49:28;;;;;;;6.60;3.80;;;;;;;23.98;53.15;99666.55;82154;1294;3012958;-66
2023/09/02 09:54:18;;;;;;;7.60;4.20;;;;;;;24.44;51.58;99668.97;80092;1301;3013791;-68
2023/09/02 09:56:44;;;;;;;4.70;3.90;;;;;;;24.39;51.60;99669.54;79040;1306;3013367;-67
2023/09/02 09:59:11;;;;;;;7.10;3.70;;;;;;;24.44;51.55;99664.34;79021;1303;3011648;-66
2023/09/02 10:01:39;;;;;;;6.80;3.60;;;;;;;24.62;51.58;99662.98;77826;1303;3026961;-67
2023/09/02 10:04:06;;;;;;;4.10;3.50;;;;;;;24.67;50.57;99665.25;78954;1308;3013433;-67
2023/09/02 10:06:37;;;;;;;6.10;3.80;;;;;;;24.57;50.40;99668.04;76956;1303;3154492;-67
2023/09/02 10:09:06;;;;;;;5.60;3.30;;;;;;;24.47;50.80;99668.79;78094;1298;3047894;-67
2023/09/02 10:11:32;;;;;;;7.10;3.90;;;;;;;24.36;50.50;99669.73;79550;1297;3019146;-68
2023/09/02 10:13:59;;;;;;;8.80;3.40;;;;;;;24.53;50.58;99671.16;79415;1298;3011505;-67
2023/09/02 10:16:27;;;;;;;6.20;3.30;;;;;;;24.65;49.49;99669.00;78056;1300;3024973;-67
2023/09/02 10:18:54;;;;;;;4.50;3.70;;;;;;;24.57;50.16;99668.80;79489;1297;3013829;-66
2023/09/02 10:21:20;;;;;;;6.50;3.40;;;;;;;24.70;50.40;99666.76;79377;1297;3011862;-67
2023/09/02 10:23:50;;;;;;;6.10;3.60;;;;;;;25.06;49.54;99667.35;78105;1297;3049332;-66
2023/09/02 10:26:42;;;;;;;6.30;3.20;;;;;;;24.97;48.49;99683.80;79355;1300;3013136;-67
2023/09/02 10:29:10;;;;;;;5.30;3.80;;;;;;;24.82;49.02;99680.60;78189;1300;3052603;-67
2023/09/02 10:31:39;;;;;;;4.80;3.80;;;;;;;24.75;49.68;99685.63;79444;1296;3012847;-67
2023/09/02 10:34:19;;;;;;;5.50;3.90;;;;;;;24.83;49.86;99684.59;78957;1297;3013403;-68
2023/09/02 10:36:48;;;;;;;8.50;3.50;;;;;;;24.70;50.23;99676.80;78119;1297;3050689;-66
2023/09/02 10:39:19;;;;;;;6.40;3.20;;;;;;;24.82;50.09;99684.02;79284;1300;3011427;-67
2023/09/02 10:41:47;;;;;;;5.80;3.80;;;;;;;24.70;49.79;99685.77;78001;1297;3052158;-67
2023/09/02 10:44:14;;;;;;;4.20;3.80;;;;;;;24.81;49.79;99678.77;79417;1297;3013298;-66
2023/09/02 10:46:40;;;;;;;8.10;4.40;;;;;;;24.80;49.87;99674.30;79349;1300;3011852;-67
2023/09/02 10:49:08;;;;;;;4.70;3.60;;;;;;;24.64;50.23;99669.35;78253;1300;3028265;-67
2023/09/02 10:51:35;;;;;;;3.40;3.10;;;;;;;24.60;50.06;99681.90;79366;1298;3018532;-67
2023/09/02 10:54:02;;;;;;;6.10;3.90;;;;;;;24.69;49.70;99669.20;79363;1298;3011786;-67
2023/09/02 10:56:35;;;;;;;4.40;3.20;;;;;;;24.89;48.64;99675.89;78185;1297;3026570;-67
2023/09/02 10:59:03;;;;;;;7.10;3.40;;;;;;;25.06;48.45;99669.91;79342;1297;3013052;-67
2023/09/02 11:01:48;;;;;;;11.40;3.90;;;;;;;25.36;47.85;99665.84;78193;1297;3052523;-67
2023/09/02 11:04:44;;;;;;;6.70;3.40;;;;;;;25.26;48.28;99667.46;78178;1300;3052037;-67
2023/09/02 11:07:18;;;;;;;6.50;3.60;;;;;;;25.35;48.45;99667.19;77997;1300;3069128;-67
2023/09/02 11:09:54;;;;;;;4.80;3.30;;;;;;;25.44;47.62;99667.00;78961;1297;3012810;-67
2023/09/02 11:12:23;;;;;;;5.90;3.50;;;;;;;25.60;46.55;99669.17;78862;1297;3011573;-67
2023/09/02 11:15:08;;;;;;;9.70;3.50;;;;;;;25.73;46.64;99664.01;79330;1297;3013365;-67
2023/09/02 11:17:37;;;;;;;6.30;3.80;;;;;;;25.64;47.58;99661.48;78215;1297;3050222;-67
2023/09/02 11:20:11;;;;;;;6.00;3.60;;;;;;;25.63;47.56;99663.85;79439;1301;3013416;-67